createdAt,value
2019-05-25T00:01:11.867Z,94.90
2019-05-25T00:03:42.179Z,94.60
2019-05-25T00:06:12.635Z,94.90
2019-05-25T00:08:42.991Z,94.70
2019-05-25T00:11:13.373Z,94.80
2019-05-25T00:13:43.717Z,95.00
2019-05-25T00:16:14.103Z,95.00
2019-05-25T00:18:44.511Z,95.40
2019-05-25T00:21:14.888Z,95.20
2019-05-25T00:23:45.235Z,95.40
2019-05-25T00:26:15.599Z,95.80
2019-05-25T00:28:45.959Z,95.70
2019-05-25T00:31:16.402Z,96.30
2019-05-25T00:33:46.790Z,96.50
2019-05-25T00:36:17.164Z,97.20
2019-05-25T00:38:47.588Z,97.40
2019-05-25T00:41:17.979Z,97.20
2019-05-25T00:43:48.324Z,97.00
2019-05-25T00:46:18.719Z,97.10
2019-05-25T00:48:49.158Z,97.10
2019-05-25T00:51:26.882Z,97.50
2019-05-25T00:53:57.233Z,97.60
2019-05-25T00:56:29.531Z,97.50
2019-05-25T00:58:59.846Z,97.40
2019-05-25T01:01:30.307Z,97.50
2019-05-25T01:04:00.651Z,97.30
2019-05-25T01:06:31.034Z,97.20
2019-05-25T01:09:01.421Z,97.50
2019-05-25T01:11:33.344Z,97.50
2019-05-25T01:14:03.683Z,97.70
2019-05-25T01:16:35.141Z,97.40
2019-05-25T01:19:05.588Z,97.40
2019-05-25T01:21:35.989Z,97.50
2019-05-25T01:24:06.442Z,97.50
2019-05-25T01:26:36.863Z,97.50
2019-05-25T01:29:07.218Z,97.70
2019-05-25T01:31:37.604Z,98.40
2019-05-25T01:34:07.988Z,97.90
2019-05-25T01:36:38.380Z,97.90
2019-05-25T01:39:08.879Z,98.30
2019-05-25T01:41:39.247Z,98.30
2019-05-25T01:44:09.670Z,98.30
2019-05-25T01:46:40.115Z,98.80
2019-05-25T01:49:10.520Z,99.10
2019-05-25T01:51:40.885Z,98.80
2019-05-25T01:54:11.215Z,98.50
2019-05-25T01:56:41.646Z,98.50
2019-05-25T01:59:11.974Z,98.60
2019-05-25T02:01:42.471Z,98.40
2019-05-25T02:04:12.802Z,98.40
2019-05-25T02:06:43.183Z,98.50
2019-05-25T02:09:13.519Z,98.40
2019-05-25T02:11:43.903Z,99.00
2019-05-25T02:14:14.239Z,98.80
2019-05-25T02:16:44.614Z,98.80
2019-05-25T02:19:14.944Z,98.70
2019-05-25T02:21:45.341Z,98.70
2019-05-25T02:24:15.661Z,98.80
2019-05-25T02:26:46.166Z,98.80
2019-05-25T02:29:16.561Z,99.30
2019-05-25T02:31:46.922Z,99.20
2019-05-25T02:34:17.314Z,99.60
2019-05-25T02:36:47.681Z,99.40
2019-05-25T02:39:18.021Z,99.80
2019-05-25T02:41:48.399Z,99.40
2019-05-25T02:44:18.826Z,99.50
2019-05-25T02:46:49.209Z,99.50
2019-05-25T02:49:19.534Z,99.40
2019-05-25T02:51:49.928Z,99.40
2019-05-25T02:54:20.251Z,99.40
2019-05-25T02:56:51.707Z,99.30
2019-05-25T02:59:22.058Z,99.30
2019-05-25T03:01:52.444Z,99.30
2019-05-25T03:04:22.876Z,99.70
2019-05-25T03:06:53.818Z,99.50
2019-05-25T03:09:25.850Z,99.30
2019-05-25T03:11:57.713Z,99.40
2019-05-25T03:14:28.111Z,99.60
2019-05-25T03:16:58.729Z,99.50
2019-05-25T03:19:29.088Z,99.40
2019-05-25T03:21:59.475Z,99.50
2019-05-25T03:24:29.804Z,99.60
2019-05-25T03:27:00.188Z,99.80
2019-05-25T03:29:30.538Z,99.70
2019-05-25T03:32:00.919Z,99.70
2019-05-25T03:34:31.252Z,99.90
2019-05-25T03:37:01.645Z,99.90
2019-05-25T03:39:34.298Z,99.90
2019-05-25T03:42:04.679Z,99.90
2019-05-25T03:44:35.150Z,99.90
2019-05-25T03:47:05.547Z,99.90
2019-05-25T03:49:35.899Z,99.90
2019-05-25T03:52:06.267Z,99.90
2019-05-25T03:54:36.608Z,99.90
2019-05-25T03:57:07.011Z,99.90
2019-05-25T03:59:38.299Z,99.90
2019-05-25T04:02:08.674Z,99.90
2019-05-25T04:04:40.012Z,99.90
2019-05-25T04:07:10.403Z,99.90
2019-05-25T04:09:40.930Z,99.90
2019-05-25T04:12:11.298Z,99.90
2019-05-25T04:14:41.621Z,99.90
2019-05-25T04:17:12.004Z,99.90
2019-05-25T04:19:42.323Z,99.90
2019-05-25T04:22:12.683Z,99.90
2019-05-25T04:24:43.022Z,99.90
2019-05-25T04:27:13.403Z,99.90
2019-05-25T04:29:43.753Z,99.90
2019-05-25T04:32:14.229Z,99.90
2019-05-25T04:34:44.570Z,99.90
2019-05-25T04:37:14.949Z,99.90
2019-05-25T04:39:45.284Z,99.90
2019-05-25T04:42:15.811Z,99.90
2019-05-25T04:44:46.225Z,99.90
2019-05-25T04:47:26.566Z,99.90
2019-05-25T04:49:48.592Z,99.90
2019-05-25T04:52:18.980Z,99.90
2019-05-25T04:54:49.332Z,99.90
2019-05-25T04:57:19.716Z,99.90
2019-05-25T04:59:50.241Z,99.90
2019-05-25T05:02:20.656Z,99.90
2019-05-25T05:04:50.975Z,99.90
2019-05-25T05:07:21.490Z,99.90
2019-05-25T05:10:02.169Z,99.90
2019-05-25T05:12:23.835Z,99.90
2019-05-25T05:14:56.482Z,99.90
2019-05-25T05:17:26.173Z,99.90
2019-05-25T05:19:56.497Z,99.90
2019-05-25T05:22:26.865Z,99.90
2019-05-25T05:24:57.219Z,99.90
2019-05-25T05:27:27.785Z,99.90
2019-05-25T05:29:58.139Z,99.90
2019-05-25T05:32:31.636Z,99.90
2019-05-25T05:35:02.034Z,99.90
2019-05-25T05:37:33.019Z,99.90
2019-05-25T05:40:03.487Z,99.90
2019-05-25T05:42:35.487Z,99.90
2019-05-25T05:45:06.270Z,99.80
2019-05-25T05:47:38.603Z,99.40
2019-05-25T05:50:10.550Z,99.10
2019-05-25T05:52:41.034Z,98.90
2019-05-25T05:55:12.156Z,98.40
2019-05-25T05:57:42.543Z,98.00
2019-05-25T06:00:13.167Z,97.70
2019-05-25T06:02:43.668Z,97.50
2019-05-25T06:05:14.350Z,97.50
2019-05-25T06:07:44.701Z,97.30
2019-05-25T06:10:15.307Z,96.70
2019-05-25T06:12:45.627Z,96.30
2019-05-25T06:15:16.259Z,96.10
2019-05-25T06:17:46.705Z,95.70
2019-05-25T06:20:17.310Z,95.40
2019-05-25T06:22:47.648Z,95.20
2019-05-25T06:25:18.039Z,95.00
2019-05-25T06:27:48.369Z,94.70
2019-05-25T06:30:19.175Z,94.40
2019-05-25T06:32:49.562Z,94.10
2019-05-25T06:35:20.041Z,93.90
2019-05-25T06:37:50.384Z,93.90
2019-05-25T06:40:21.156Z,93.70
2019-05-25T06:42:51.572Z,93.60
2019-05-25T06:45:21.878Z,93.60
2019-05-25T06:47:52.212Z,93.40
2019-05-25T06:50:22.588Z,93.40
2019-05-25T06:52:53.026Z,93.40
2019-05-25T06:55:23.406Z,93.40
2019-05-25T06:57:53.755Z,93.30
2019-05-25T07:00:24.145Z,93.30
2019-05-25T07:02:54.475Z,93.40
2019-05-25T07:05:26.026Z,93.20
2019-05-25T07:07:56.426Z,93.00
2019-05-25T07:10:26.823Z,93.00
2019-05-25T07:12:57.145Z,92.80
2019-05-25T07:15:27.518Z,93.00
2019-05-25T07:17:57.901Z,92.90
2019-05-25T07:20:28.275Z,92.50
2019-05-25T07:22:58.663Z,92.20
2019-05-25T07:25:28.996Z,92.00
2019-05-25T07:28:00.455Z,91.80
2019-05-25T07:30:30.899Z,91.40
2019-05-25T07:33:01.269Z,91.20
2019-05-25T07:35:31.609Z,90.60
2019-05-25T07:38:01.983Z,89.90
2019-05-25T07:40:32.332Z,88.10
2019-05-25T07:43:02.737Z,87.50
2019-05-25T07:45:33.103Z,87.10
2019-05-25T07:48:03.468Z,87.00
2019-05-25T07:50:33.799Z,86.10
2019-05-25T07:53:04.173Z,85.30
2019-05-25T07:55:34.570Z,85.50
2019-05-25T07:58:16.445Z,84.80
2019-05-25T08:00:37.019Z,83.90
2019-05-25T08:03:07.390Z,82.80
2019-05-25T08:05:37.723Z,83.30
2019-05-25T08:08:08.080Z,82.20
2019-05-25T08:10:38.416Z,80.50
2019-05-25T08:13:08.894Z,79.80
2019-05-25T08:15:39.446Z,80.00
2019-05-25T08:18:09.827Z,78.90
2019-05-25T08:20:40.179Z,78.10
2019-05-25T08:23:10.588Z,77.00
2019-05-25T08:25:40.928Z,76.10
2019-05-25T08:28:11.376Z,75.70
2019-05-25T08:30:41.767Z,74.90
2019-05-25T08:33:13.704Z,73.70
2019-05-25T08:35:46.430Z,73.10
2019-05-25T08:38:16.113Z,71.50
2019-05-25T08:40:46.435Z,69.20
2019-05-25T08:43:16.836Z,66.80
2019-05-25T08:45:47.169Z,63.40
2019-05-25T08:48:18.331Z,62.70
2019-05-25T08:50:48.609Z,64.00
2019-05-25T08:53:23.203Z,62.20
2019-05-25T08:55:50.989Z,61.70
2019-05-25T08:58:21.370Z,61.20
2019-05-25T09:00:51.734Z,61.60
2019-05-25T09:03:22.115Z,62.80
2019-05-25T09:05:52.437Z,62.20
2019-05-25T09:08:22.951Z,60.70
2019-05-25T09:10:53.298Z,59.70
2019-05-25T09:13:23.814Z,59.20
2019-05-25T09:15:54.205Z,58.60
2019-05-25T09:18:24.605Z,58.40
2019-05-25T09:20:54.971Z,59.50
2019-05-25T09:23:25.624Z,60.40
2019-05-25T09:25:55.974Z,59.30
2019-05-25T09:28:26.365Z,59.10
2019-05-25T09:30:56.791Z,58.60
2019-05-25T09:33:27.201Z,60.20
2019-05-25T09:35:58.093Z,57.90
2019-05-25T09:38:28.607Z,59.00
2019-05-25T09:40:59.036Z,56.50
2019-05-25T09:43:29.864Z,56.30
2019-05-25T09:46:03.115Z,57.10
2019-05-25T09:48:32.211Z,56.80
2019-05-25T09:51:02.648Z,56.20
2019-05-25T09:53:33.009Z,55.50
2019-05-25T09:56:03.348Z,54.80
2019-05-25T09:58:33.827Z,55.10
2019-05-25T10:01:04.565Z,53.40
2019-05-25T10:03:34.941Z,52.80
2019-05-25T10:06:12.586Z,52.70
2019-05-25T10:08:37.531Z,53.90
2019-05-25T10:11:07.969Z,55.00
2019-05-25T10:13:38.335Z,53.40
2019-05-25T10:16:08.739Z,54.50
2019-05-25T10:18:39.245Z,54.80
2019-05-25T10:21:09.587Z,54.30
2019-05-25T10:23:40.228Z,51.60
2019-05-25T10:26:10.558Z,51.60
2019-05-25T10:28:41.011Z,52.20
2019-05-25T10:31:11.386Z,51.30
2019-05-25T10:33:41.780Z,50.80
2019-05-25T10:36:12.130Z,50.70
2019-05-25T10:38:42.492Z,50.70
2019-05-25T10:41:12.908Z,50.10
2019-05-25T10:43:43.260Z,50.00
2019-05-25T10:46:13.648Z,50.20
2019-05-25T10:48:44.023Z,49.40
2019-05-25T10:51:14.419Z,50.40
2019-05-25T10:53:44.798Z,49.40
2019-05-25T10:56:15.199Z,49.70
2019-05-25T10:58:45.510Z,49.30
2019-05-25T11:01:15.914Z,49.60
2019-05-25T11:03:46.286Z,49.40
2019-05-25T11:06:16.751Z,48.80
2019-05-25T11:08:47.147Z,48.00
2019-05-25T11:11:17.537Z,47.50
2019-05-25T11:13:47.943Z,47.50
2019-05-25T11:16:18.317Z,46.50
2019-05-25T11:18:48.663Z,45.20
2019-05-25T11:21:19.020Z,44.60
2019-05-25T11:23:49.348Z,44.00
2019-05-25T11:26:19.719Z,42.00
2019-05-25T11:28:51.131Z,39.10
2019-05-25T11:31:21.501Z,39.10
2019-05-25T11:33:51.812Z,37.60
2019-05-25T11:36:22.206Z,37.30
2019-05-25T11:38:52.551Z,35.20
2019-05-25T11:41:22.933Z,30.80
2019-05-25T11:43:53.380Z,30.80
2019-05-25T11:46:23.743Z,30.10
2019-05-25T11:48:54.124Z,27.80
2019-05-25T11:51:24.563Z,28.60
2019-05-25T11:53:54.979Z,29.90
2019-05-25T11:56:25.415Z,30.10
2019-05-25T11:58:55.759Z,31.20
2019-05-25T12:01:26.151Z,30.10
2019-05-25T12:03:56.593Z,30.00
2019-05-25T12:06:26.939Z,29.80
2019-05-25T12:08:57.917Z,29.20
2019-05-25T12:11:28.307Z,29.10
2019-05-25T12:13:58.631Z,29.50
2019-05-25T12:16:29.009Z,29.60
2019-05-25T12:18:59.329Z,28.90
2019-05-25T12:21:29.725Z,29.30
2019-05-25T12:24:00.022Z,30.30
2019-05-25T12:26:30.387Z,30.60
2019-05-25T12:29:00.717Z,30.90
2019-05-25T12:34:03.409Z,31.60
2019-05-25T12:36:33.774Z,34.20
2019-05-25T12:39:05.591Z,34.90
2019-05-25T12:41:35.974Z,36.00
2019-05-25T12:44:06.294Z,36.70
2019-05-25T12:46:36.660Z,36.80
2019-05-25T12:49:07.030Z,37.20
2019-05-25T12:51:37.369Z,37.80
2019-05-25T12:54:07.720Z,37.40
2019-05-25T12:56:38.080Z,38.20
2019-05-25T12:59:08.534Z,38.40
2019-05-25T13:01:38.995Z,38.60
2019-05-25T13:04:09.378Z,38.50
2019-05-25T13:06:41.272Z,39.00
2019-05-25T13:09:11.748Z,39.30
2019-05-25T13:11:42.124Z,39.00
2019-05-25T13:14:14.805Z,39.00
2019-05-25T13:16:44.469Z,39.30
2019-05-25T13:19:14.844Z,38.10
2019-05-25T13:21:45.336Z,38.10
2019-05-25T13:24:15.707Z,36.50
2019-05-25T13:26:46.062Z,35.20
2019-05-25T13:29:16.438Z,33.50
2019-05-25T13:31:46.818Z,31.60
2019-05-25T13:34:17.303Z,32.00
2019-05-25T13:36:47.564Z,32.80
2019-05-25T13:39:17.930Z,34.40
2019-05-25T13:41:48.265Z,35.50
2019-05-25T13:44:18.652Z,35.80
2019-05-25T13:46:48.969Z,37.20
2019-05-25T13:49:19.329Z,37.60
2019-05-25T13:51:49.658Z,38.40
2019-05-25T13:54:20.101Z,39.10
2019-05-25T13:56:50.527Z,39.80
2019-05-25T13:59:20.943Z,40.50
2019-05-25T14:01:51.280Z,41.50
2019-05-25T14:04:21.657Z,41.50
2019-05-25T14:06:51.994Z,42.30
2019-05-25T14:09:22.391Z,43.00
2019-05-25T14:11:52.749Z,43.30
2019-05-25T14:14:24.612Z,44.00
2019-05-25T14:16:55.024Z,44.60
2019-05-25T14:19:25.486Z,44.50
2019-05-25T14:21:55.740Z,44.40
2019-05-25T14:24:26.174Z,44.10
2019-05-25T14:26:56.510Z,43.60
2019-05-25T14:29:26.944Z,43.60
2019-05-25T14:31:57.268Z,43.40
2019-05-25T14:34:27.631Z,42.90
2019-05-25T14:36:57.959Z,42.60
2019-05-25T14:39:28.347Z,42.50
2019-05-25T14:41:58.655Z,42.20
2019-05-25T14:44:30.024Z,41.90
2019-05-25T14:47:00.664Z,41.90
2019-05-25T14:49:31.054Z,41.00
2019-05-25T14:52:01.383Z,39.40
2019-05-25T14:54:31.735Z,38.30
2019-05-25T14:57:02.087Z,35.70
2019-05-25T14:59:32.680Z,33.30
2019-05-25T15:02:03.943Z,31.80
2019-05-25T15:04:34.426Z,30.20
2019-05-25T15:07:04.787Z,29.40
2019-05-25T15:09:35.137Z,28.10
2019-05-25T15:12:05.576Z,26.90
2019-05-25T15:14:35.997Z,25.80
2019-05-25T15:17:06.348Z,25.90
2019-05-25T15:19:36.814Z,25.10
2019-05-25T15:22:07.340Z,25.10
2019-05-25T15:24:38.032Z,24.90
2019-05-25T15:27:08.500Z,23.90
2019-05-25T15:29:39.088Z,23.90
2019-05-25T15:32:19.429Z,24.10
2019-05-25T15:34:41.480Z,23.90
2019-05-25T15:37:11.886Z,24.30
2019-05-25T15:39:42.228Z,23.90
2019-05-25T15:42:12.570Z,23.30
2019-05-25T15:44:42.900Z,23.10
2019-05-25T15:47:13.466Z,23.20
2019-05-25T15:49:43.854Z,22.90
2019-05-25T15:52:14.264Z,22.70
2019-05-25T15:54:44.663Z,22.10
2019-05-25T15:57:16.151Z,22.60
2019-05-25T15:59:46.611Z,22.60
2019-05-25T16:02:17.086Z,23.20
2019-05-25T16:04:48.495Z,23.10
2019-05-25T16:07:18.876Z,23.20
2019-05-25T16:09:49.286Z,23.10
2019-05-25T16:12:19.655Z,22.70
2019-05-25T16:14:50.264Z,23.20
2019-05-25T16:17:20.599Z,22.70
2019-05-25T16:19:50.981Z,22.30
2019-05-25T16:22:21.299Z,22.00
2019-05-25T16:24:51.657Z,22.20
2019-05-25T16:27:22.040Z,22.20
2019-05-25T16:29:52.352Z,22.10
2019-05-25T16:32:22.823Z,21.90
2019-05-25T16:34:53.199Z,21.90
2019-05-25T16:37:23.678Z,22.10
2019-05-25T16:39:54.028Z,22.80
2019-05-25T16:42:24.432Z,22.20
2019-05-25T16:44:54.754Z,22.50
2019-05-25T16:47:25.142Z,22.30
2019-05-25T16:49:55.446Z,21.80
2019-05-25T16:52:25.815Z,21.20
2019-05-25T16:54:56.151Z,21.60
2019-05-25T16:57:26.528Z,22.00
2019-05-25T16:59:56.859Z,22.60
2019-05-25T17:02:27.221Z,23.30
2019-05-25T17:04:57.595Z,23.20
2019-05-25T17:07:27.948Z,23.00
2019-05-25T17:09:58.281Z,22.90
2019-05-25T17:12:28.697Z,22.80
2019-05-25T17:14:59.024Z,22.40
2019-05-25T17:17:29.423Z,22.50
2019-05-25T17:19:59.736Z,22.00
2019-05-25T17:22:30.115Z,22.00
2019-05-25T17:25:00.444Z,21.60
2019-05-25T17:27:30.816Z,21.20
2019-05-25T17:30:01.153Z,21.60
2019-05-25T17:32:31.930Z,20.80
2019-05-25T17:35:02.315Z,20.40
2019-05-25T17:37:32.756Z,20.60
2019-05-25T17:40:03.075Z,21.30
2019-05-25T17:42:33.476Z,20.40
2019-05-25T17:45:03.886Z,21.10
2019-05-25T17:47:34.325Z,21.10
2019-05-25T17:50:05.290Z,21.30
2019-05-25T17:52:35.654Z,21.50
2019-05-25T17:55:07.114Z,21.70
2019-05-25T17:57:37.495Z,22.00
2019-05-25T18:00:08.476Z,22.40
2019-05-25T18:02:38.800Z,22.90
2019-05-25T18:05:11.094Z,23.50
2019-05-25T18:07:41.475Z,24.40
2019-05-25T18:10:12.206Z,25.20
2019-05-25T18:12:46.492Z,26.30
2019-05-25T18:15:14.742Z,27.20
2019-05-25T18:17:45.106Z,27.30
2019-05-25T18:20:15.938Z,27.70
2019-05-25T18:22:46.380Z,28.50
2019-05-25T18:25:17.268Z,29.00
2019-05-25T18:27:47.671Z,29.40
2019-05-25T18:30:18.731Z,29.80
2019-05-25T18:32:49.055Z,30.40
2019-05-25T18:35:19.427Z,32.10
2019-05-25T18:37:49.783Z,34.60
2019-05-25T18:40:20.936Z,37.30
2019-05-25T18:42:52.270Z,39.50
2019-05-25T18:45:22.748Z,39.40
2019-05-25T18:47:53.161Z,40.10
2019-05-25T18:50:23.912Z,40.50
2019-05-25T18:52:54.305Z,41.10
2019-05-25T18:55:24.616Z,41.60
2019-05-25T18:57:54.989Z,41.60
2019-05-25T19:00:25.626Z,41.90
2019-05-25T19:02:56.146Z,42.50
2019-05-25T19:05:26.458Z,42.70
2019-05-25T19:07:57.089Z,43.40
2019-05-25T19:10:27.520Z,43.90
2019-05-25T19:12:57.929Z,43.80
2019-05-25T19:15:28.314Z,44.40
2019-05-25T19:17:58.667Z,44.50
2019-05-25T19:20:29.094Z,44.60
2019-05-25T19:22:59.522Z,44.90
2019-05-25T19:25:29.874Z,45.10
2019-05-25T19:28:00.245Z,45.20
2019-05-25T19:30:30.627Z,46.20
2019-05-25T19:33:00.976Z,46.80
2019-05-25T19:35:32.697Z,47.00
2019-05-25T19:38:03.022Z,47.20
2019-05-25T19:40:33.875Z,47.60
2019-05-25T19:43:04.340Z,47.80
2019-05-25T19:45:34.725Z,48.40
2019-05-25T19:48:05.709Z,47.70
2019-05-25T19:50:36.081Z,47.80
2019-05-25T19:53:06.448Z,48.10
2019-05-25T19:55:36.873Z,48.30
2019-05-25T19:58:07.303Z,48.20
2019-05-25T20:00:37.677Z,48.50
2019-05-25T20:03:07.980Z,49.00
2019-05-25T20:05:38.399Z,48.90
2019-05-25T20:08:08.745Z,48.90
2019-05-25T20:10:39.261Z,48.90
2019-05-25T20:13:09.612Z,48.60
2019-05-25T20:15:40.019Z,48.60
2019-05-25T20:18:10.413Z,48.60
2019-05-25T20:20:40.830Z,48.80
2019-05-25T20:23:11.155Z,48.90
2019-05-25T20:25:44.343Z,49.00
2019-05-25T20:28:14.769Z,49.40
2019-05-25T20:30:45.274Z,49.50
2019-05-25T20:33:26.958Z,49.80
2019-05-25T20:35:48.676Z,49.90
2019-05-25T20:38:19.078Z,49.90
2019-05-25T20:40:49.459Z,50.30
2019-05-25T20:43:19.792Z,50.10
2019-05-25T20:45:50.172Z,50.20
2019-05-25T20:48:21.657Z,50.30
2019-05-25T20:50:52.304Z,50.30
2019-05-25T20:53:22.751Z,50.80
2019-05-25T20:55:54.203Z,51.60
2019-05-25T20:58:24.592Z,51.80
2019-05-25T21:00:55.123Z,52.20
2019-05-25T21:03:25.513Z,52.50
2019-05-25T21:05:55.934Z,53.00
2019-05-25T21:08:26.265Z,53.30
2019-05-25T21:10:56.865Z,53.10
2019-05-25T21:13:27.383Z,53.20
2019-05-25T21:15:57.903Z,53.30
2019-05-25T21:18:28.284Z,53.30
2019-05-25T21:20:58.753Z,53.40
2019-05-25T21:23:29.077Z,54.30
2019-05-25T21:25:59.490Z,53.30
2019-05-25T21:28:30.249Z,53.70
2019-05-25T21:31:01.004Z,54.00
2019-05-25T21:33:31.641Z,53.90
2019-05-25T21:36:08.458Z,53.70
2019-05-25T21:38:34.015Z,53.70
2019-05-25T21:41:04.463Z,53.80
2019-05-25T21:43:34.839Z,53.80
2019-05-25T21:46:05.219Z,54.00
2019-05-25T21:48:35.527Z,54.40
2019-05-25T21:51:07.099Z,55.00
2019-05-25T21:53:37.430Z,55.40
2019-05-25T21:56:07.943Z,55.60
2019-05-25T21:58:38.376Z,56.30
2019-05-25T22:01:09.131Z,57.20
2019-05-25T22:03:39.477Z,57.60
2019-05-25T22:06:23.360Z,58.20
2019-05-25T22:08:42.393Z,58.80
2019-05-25T22:11:12.882Z,59.00
2019-05-25T22:13:43.402Z,59.40
2019-05-25T22:16:13.949Z,59.70
2019-05-25T22:18:44.686Z,60.50
2019-05-25T22:21:15.248Z,60.90
2019-05-25T22:23:46.125Z,61.20
2019-05-25T22:26:16.713Z,61.70
2019-05-25T22:28:47.455Z,62.20
2019-05-25T22:31:17.925Z,62.60
2019-05-25T22:33:48.250Z,63.80
2019-05-25T22:36:18.618Z,64.30
2019-05-25T22:38:48.934Z,64.90
2019-05-25T22:41:20.123Z,65.30
2019-05-25T22:43:50.706Z,65.90
2019-05-25T22:46:21.020Z,67.00
2019-05-25T22:48:51.396Z,67.40
2019-05-25T22:51:21.760Z,69.10
2019-05-25T22:53:53.963Z,70.80
2019-05-25T22:56:26.015Z,70.60
2019-05-25T22:58:58.348Z,70.80
2019-05-25T23:01:33.436Z,70.90
2019-05-25T23:04:03.937Z,70.90
2019-05-25T23:06:34.240Z,71.90
2019-05-25T23:09:05.892Z,72.90
2019-05-25T23:11:36.259Z,74.20
2019-05-25T23:14:09.695Z,75.20
2019-05-25T23:16:38.676Z,76.30
2019-05-25T23:19:09.085Z,76.70
2019-05-25T23:21:39.377Z,77.00
2019-05-25T23:24:09.762Z,77.40
2019-05-25T23:26:40.164Z,77.60
2019-05-25T23:29:10.619Z,78.30
2019-05-25T23:31:41.026Z,78.50
2019-05-25T23:34:11.410Z,79.30
2019-05-25T23:36:41.817Z,79.60
2019-05-25T23:39:12.237Z,79.90
2019-05-25T23:41:42.565Z,81.30
2019-05-25T23:44:13.067Z,82.20
2019-05-25T23:46:43.560Z,82.70
2019-05-25T23:49:14.127Z,83.70
2019-05-25T23:51:44.523Z,84.70
2019-05-25T23:54:15.018Z,84.30
2019-05-25T23:56:45.325Z,85.20
2019-05-25T23:59:15.705Z,86.40
